Vonore, Tennessee
Current Conditions -  °F | °C
As of 7:53 PM on Sunday 23 Nov 2014 (Local Time) from KTYS Reporting Station
Overcast Overcast  
Wind Chill: 59°   Ceiling: 6000
Heat Index: 59°   Visibility: 10mi
Dew Point: 55°   Wind: 7mph
Humidity: 87%   Direction: 190°S
Pressure: 29.55"   Gusts: NA
Location:  35.59°N, 84.24°W
Report Text: KTYS 240053Z 19006KT 10SM BKN060 OVC150 15/13 A2955 RMK AO2 RAE14 SLP004 P0002 T01500128
Loading
Personal Weather Stations






























Interactive Weather Map New forecast layout! Learn more

10-Day Weather Forecast

Advertisements
Track Severe Weather on mobile